sensor_id;sensor_type;location;lat;lon;timestamp;temperature;humidity
8565;DHT22;4320;51.498;6.556;2023-09-30T00:01:54;15.90;95.50
8565;DHT22;4320;51.498;6.556;2023-09-30T00:04:20;15.90;95.20
8565;DHT22;4320;51.498;6.556;2023-09-30T00:06:46;15.80;96.00
8565;DHT22;4320;51.498;6.556;2023-09-30T00:09:11;15.90;96.90
8565;DHT22;4320;51.498;6.556;2023-09-30T00:11:37;15.90;96.90
8565;DHT22;4320;51.498;6.556;2023-09-30T00:14:03;15.90;96.80
8565;DHT22;4320;51.498;6.556;2023-09-30T00:16:29;15.80;96.70
8565;DHT22;4320;51.498;6.556;2023-09-30T00:18:56;15.90;97.00
8565;DHT22;4320;51.498;6.556;2023-09-30T00:21:23;15.90;96.80
8565;DHT22;4320;51.498;6.556;2023-09-30T00:23:49;15.90;96.30
8565;DHT22;4320;51.498;6.556;2023-09-30T00:26:15;15.90;96.10
8565;DHT22;4320;51.498;6.556;2023-09-30T00:28:40;15.90;95.90
8565;DHT22;4320;51.498;6.556;2023-09-30T00:31:09;15.90;95.60
8565;DHT22;4320;51.498;6.556;2023-09-30T00:33:35;15.90;95.00
8565;DHT22;4320;51.498;6.556;2023-09-30T00:36:07;15.90;94.80
8565;DHT22;4320;51.498;6.556;2023-09-30T00:38:32;15.90;95.70
8565;DHT22;4320;51.498;6.556;2023-09-30T00:40:58;15.80;96.30
8565;DHT22;4320;51.498;6.556;2023-09-30T00:43:23;15.60;99.90
8565;DHT22;4320;51.498;6.556;2023-09-30T00:45:52;15.60;99.90
8565;DHT22;4320;51.498;6.556;2023-09-30T00:48:22;15.70;99.90
8565;DHT22;4320;51.498;6.556;2023-09-30T00:50:47;15.80;99.90
8565;DHT22;4320;51.498;6.556;2023-09-30T00:53:14;15.80;99.90
8565;DHT22;4320;51.498;6.556;2023-09-30T00:55:39;15.80;99.90
8565;DHT22;4320;51.498;6.556;2023-09-30T00:58:05;15.70;99.90
8565;DHT22;4320;51.498;6.556;2023-09-30T01:00:31;15.60;99.90
8565;DHT22;4320;51.498;6.556;2023-09-30T01:02:57;15.60;99.90
8565;DHT22;4320;51.498;6.556;2023-09-30T01:05:29;15.70;99.90
8565;DHT22;4320;51.498;6.556;2023-09-30T01:07:55;15.70;99.90
8565;DHT22;4320;51.498;6.556;2023-09-30T01:10:21;15.80;99.90
8565;DHT22;4320;51.498;6.556;2023-09-30T01:12:46;15.70;99.90
8565;DHT22;4320;51.498;6.556;2023-09-30T01:15:13;15.70;99.90
8565;DHT22;4320;51.498;6.556;2023-09-30T01:17:38;15.80;99.90
8565;DHT22;4320;51.498;6.556;2023-09-30T01:20:04;15.70;99.90
8565;DHT22;4320;51.498;6.556;2023-09-30T01:22:32;15.60;99.90
8565;DHT22;4320;51.498;6.556;2023-09-30T01:24:58;15.60;99.90
8565;DHT22;4320;51.498;6.556;2023-09-30T01:27:24;15.60;99.90
8565;DHT22;4320;51.498;6.556;2023-09-30T01:29:51;15.60;99.90
8565;DHT22;4320;51.498;6.556;2023-09-30T01:32:16;15.40;99.90
8565;DHT22;4320;51.498;6.556;2023-09-30T01:34:42;15.40;99.90
8565;DHT22;4320;51.498;6.556;2023-09-30T01:37:08;15.50;99.90
8565;DHT22;4320;51.498;6.556;2023-09-30T01:39:33;15.50;99.90
8565;DHT22;4320;51.498;6.556;2023-09-30T01:41:59;15.60;99.90
8565;DHT22;4320;51.498;6.556;2023-09-30T01:44:25;15.50;99.90
8565;DHT22;4320;51.498;6.556;2023-09-30T01:46:51;15.40;99.90
8565;DHT22;4320;51.498;6.556;2023-09-30T01:49:17;15.30;99.90
8565;DHT22;4320;51.498;6.556;2023-09-30T01:51:43;15.40;99.90
8565;DHT22;4320;51.498;6.556;2023-09-30T01:54:09;15.50;99.90
8565;DHT22;4320;51.498;6.556;2023-09-30T01:56:37;15.50;99.90
8565;DHT22;4320;51.498;6.556;2023-09-30T01:59:02;15.40;99.90
8565;DHT22;4320;51.498;6.556;2023-09-30T02:01:28;15.20;99.90
8565;DHT22;4320;51.498;6.556;2023-09-30T02:03:53;15.20;99.90
8565;DHT22;4320;51.498;6.556;2023-09-30T02:06:19;15.20;99.90
8565;DHT22;4320;51.498;6.556;2023-09-30T02:08:44;15.30;99.90
8565;DHT22;4320;51.498;6.556;2023-09-30T02:11:10;15.40;99.90
8565;DHT22;4320;51.498;6.556;2023-09-30T02:13:37;15.40;99.90
8565;DHT22;4320;51.498;6.556;2023-09-30T02:16:03;15.30;99.90
8565;DHT22;4320;51.498;6.556;2023-09-30T02:18:29;15.20;99.90
8565;DHT22;4320;51.498;6.556;2023-09-30T02:20:57;14.80;99.90
8565;DHT22;4320;51.498;6.556;2023-09-30T02:23:25;14.70;99.90
8565;DHT22;4320;51.498;6.556;2023-09-30T02:25:50;14.80;99.90
8565;DHT22;4320;51.498;6.556;2023-09-30T02:28:16;14.90;99.90
8565;DHT22;4320;51.498;6.556;2023-09-30T02:30:41;15.00;99.90
8565;DHT22;4320;51.498;6.556;2023-09-30T02:33:07;15.10;99.90
8565;DHT22;4320;51.498;6.556;2023-09-30T02:35:33;15.20;99.90
8565;DHT22;4320;51.498;6.556;2023-09-30T02:37:58;15.20;99.90
8565;DHT22;4320;51.498;6.556;2023-09-30T02:40:24;15.20;99.90
8565;DHT22;4320;51.498;6.556;2023-09-30T02:42:51;15.10;99.90
8565;DHT22;4320;51.498;6.556;2023-09-30T02:45:17;15.20;99.90
8565;DHT22;4320;51.498;6.556;2023-09-30T02:47:43;15.20;99.90
8565;DHT22;4320;51.498;6.556;2023-09-30T02:50:09;15.20;99.90
8565;DHT22;4320;51.498;6.556;2023-09-30T02:52:38;15.20;99.90
8565;DHT22;4320;51.498;6.556;2023-09-30T02:55:11;15.20;99.90
8565;DHT22;4320;51.498;6.556;2023-09-30T02:57:37;15.20;99.90
8565;DHT22;4320;51.498;6.556;2023-09-30T03:00:05;15.30;99.90
8565;DHT22;4320;51.498;6.556;2023-09-30T03:02:52;15.20;99.90
8565;DHT22;4320;51.498;6.556;2023-09-30T03:05:19;15.10;99.90
8565;DHT22;4320;51.498;6.556;2023-09-30T03:07:45;15.00;99.90
8565;DHT22;4320;51.498;6.556;2023-09-30T03:10:11;15.00;99.90
8565;DHT22;4320;51.498;6.556;2023-09-30T03:12:39;15.10;99.90
8565;DHT22;4320;51.498;6.556;2023-09-30T03:15:05;15.10;99.90
8565;DHT22;4320;51.498;6.556;2023-09-30T03:17:31;15.10;99.90
8565;DHT22;4320;51.498;6.556;2023-09-30T03:19:58;15.10;99.90
8565;DHT22;4320;51.498;6.556;2023-09-30T03:22:27;15.00;99.90
8565;DHT22;4320;51.498;6.556;2023-09-30T03:24:54;14.80;99.90
8565;DHT22;4320;51.498;6.556;2023-09-30T03:27:20;14.90;99.90
8565;DHT22;4320;51.498;6.556;2023-09-30T03:29:46;15.00;99.90
8565;DHT22;4320;51.498;6.556;2023-09-30T03:32:12;15.00;99.90
8565;DHT22;4320;51.498;6.556;2023-09-30T03:34:37;15.10;99.90
8565;DHT22;4320;51.498;6.556;2023-09-30T03:37:03;15.10;99.90
8565;DHT22;4320;51.498;6.556;2023-09-30T03:39:32;15.10;99.90
8565;DHT22;4320;51.498;6.556;2023-09-30T03:41:58;15.20;99.90
8565;DHT22;4320;51.498;6.556;2023-09-30T03:44:24;15.20;99.90
8565;DHT22;4320;51.498;6.556;2023-09-30T03:46:51;15.20;99.90
8565;DHT22;4320;51.498;6.556;2023-09-30T03:49:18;15.20;99.90
8565;DHT22;4320;51.498;6.556;2023-09-30T03:51:45;15.20;99.90
8565;DHT22;4320;51.498;6.556;2023-09-30T03:54:11;15.20;99.90
8565;DHT22;4320;51.498;6.556;2023-09-30T03:56:37;15.10;99.90
8565;DHT22;4320;51.498;6.556;2023-09-30T03:59:04;15.10;99.90
8565;DHT22;4320;51.498;6.556;2023-09-30T04:01:29;15.10;99.90
8565;DHT22;4320;51.498;6.556;2023-09-30T04:03:56;15.20;99.90
8565;DHT22;4320;51.498;6.556;2023-09-30T04:06:22;15.10;99.90
8565;DHT22;4320;51.498;6.556;2023-09-30T04:08:48;15.10;99.90
8565;DHT22;4320;51.498;6.556;2023-09-30T04:11:13;15.10;99.90
8565;DHT22;4320;51.498;6.556;2023-09-30T04:13:44;14.90;99.90
8565;DHT22;4320;51.498;6.556;2023-09-30T04:16:10;14.80;99.90
8565;DHT22;4320;51.498;6.556;2023-09-30T04:18:36;14.40;99.90
8565;DHT22;4320;51.498;6.556;2023-09-30T04:21:02;14.20;99.90
8565;DHT22;4320;51.498;6.556;2023-09-30T04:23:28;14.20;99.90
8565;DHT22;4320;51.498;6.556;2023-09-30T04:25:53;14.40;99.90
8565;DHT22;4320;51.498;6.556;2023-09-30T04:28:19;14.20;99.90
8565;DHT22;4320;51.498;6.556;2023-09-30T04:30:47;14.10;99.90
8565;DHT22;4320;51.498;6.556;2023-09-30T04:33:14;13.90;99.90
8565;DHT22;4320;51.498;6.556;2023-09-30T04:35:40;13.70;99.90
8565;DHT22;4320;51.498;6.556;2023-09-30T04:38:06;13.70;99.90
8565;DHT22;4320;51.498;6.556;2023-09-30T04:40:32;14.00;99.90
8565;DHT22;4320;51.498;6.556;2023-09-30T04:42:59;14.20;99.90
8565;DHT22;4320;51.498;6.556;2023-09-30T04:45:25;14.30;99.90
8565;DHT22;4320;51.498;6.556;2023-09-30T04:47:52;14.50;99.90
8565;DHT22;4320;51.498;6.556;2023-09-30T04:50:18;14.60;99.90
8565;DHT22;4320;51.498;6.556;2023-09-30T04:52:47;14.60;99.90
8565;DHT22;4320;51.498;6.556;2023-09-30T04:55:13;14.70;99.90
8565;DHT22;4320;51.498;6.556;2023-09-30T04:57:45;14.50;99.90
8565;DHT22;4320;51.498;6.556;2023-09-30T05:00:15;14.10;99.90
8565;DHT22;4320;51.498;6.556;2023-09-30T05:02:43;13.80;99.90
8565;DHT22;4320;51.498;6.556;2023-09-30T05:05:10;13.90;99.90
8565;DHT22;4320;51.498;6.556;2023-09-30T05:07:36;14.10;99.90
8565;DHT22;4320;51.498;6.556;2023-09-30T05:10:02;14.40;99.90
8565;DHT22;4320;51.498;6.556;2023-09-30T05:12:31;14.50;99.90
8565;DHT22;4320;51.498;6.556;2023-09-30T05:14:58;14.20;99.90
8565;DHT22;4320;51.498;6.556;2023-09-30T05:17:24;14.10;99.90
8565;DHT22;4320;51.498;6.556;2023-09-30T05:19:50;13.90;99.90
8565;DHT22;4320;51.498;6.556;2023-09-30T05:22:15;13.90;99.90
8565;DHT22;4320;51.498;6.556;2023-09-30T05:24:44;14.10;99.90
8565;DHT22;4320;51.498;6.556;2023-09-30T05:27:09;13.70;99.90
8565;DHT22;4320;51.498;6.556;2023-09-30T05:29:35;13.50;99.90
8565;DHT22;4320;51.498;6.556;2023-09-30T05:32:01;13.30;99.90
8565;DHT22;4320;51.498;6.556;2023-09-30T05:34:26;13.40;99.90
8565;DHT22;4320;51.498;6.556;2023-09-30T05:36:53;13.50;99.90
8565;DHT22;4320;51.498;6.556;2023-09-30T05:39:18;13.70;99.90
8565;DHT22;4320;51.498;6.556;2023-09-30T05:41:46;13.50;99.90
8565;DHT22;4320;51.498;6.556;2023-09-30T05:44:12;13.50;99.90
8565;DHT22;4320;51.498;6.556;2023-09-30T05:46:39;13.60;99.90
8565;DHT22;4320;51.498;6.556;2023-09-30T05:49:05;13.80;99.90
8565;DHT22;4320;51.498;6.556;2023-09-30T05:51:36;13.80;99.90
8565;DHT22;4320;51.498;6.556;2023-09-30T05:54:02;13.70;99.90
8565;DHT22;4320;51.498;6.556;2023-09-30T05:56:27;14.00;99.90
8565;DHT22;4320;51.498;6.556;2023-09-30T05:58:53;14.20;99.90
8565;DHT22;4320;51.498;6.556;2023-09-30T06:01:20;14.40;99.90
8565;DHT22;4320;51.498;6.556;2023-09-30T06:03:46;14.50;99.90
8565;DHT22;4320;51.498;6.556;2023-09-30T06:06:15;14.50;99.90
8565;DHT22;4320;51.498;6.556;2023-09-30T06:08:43;14.60;99.90
8565;DHT22;4320;51.498;6.556;2023-09-30T06:11:19;14.70;99.90
8565;DHT22;4320;51.498;6.556;2023-09-30T06:13:45;14.80;99.90
8565;DHT22;4320;51.498;6.556;2023-09-30T06:16:12;14.80;99.90
8565;DHT22;4320;51.498;6.556;2023-09-30T06:18:38;14.90;99.90
8565;DHT22;4320;51.498;6.556;2023-09-30T06:21:03;14.90;99.90
8565;DHT22;4320;51.498;6.556;2023-09-30T06:23:30;14.90;99.90
8565;DHT22;4320;51.498;6.556;2023-09-30T06:25:56;14.90;99.90
8565;DHT22;4320;51.498;6.556;2023-09-30T06:28:22;14.90;99.90
8565;DHT22;4320;51.498;6.556;2023-09-30T06:30:52;14.50;99.90
8565;DHT22;4320;51.498;6.556;2023-09-30T06:33:17;14.20;99.90
8565;DHT22;4320;51.498;6.556;2023-09-30T06:35:43;14.00;99.90
8565;DHT22;4320;51.498;6.556;2023-09-30T06:38:19;13.90;99.90
8565;DHT22;4320;51.498;6.556;2023-09-30T06:40:46;14.10;99.90
8565;DHT22;4320;51.498;6.556;2023-09-30T06:43:15;14.30;99.90
8565;DHT22;4320;51.498;6.556;2023-09-30T06:45:44;14.50;99.90
8565;DHT22;4320;51.498;6.556;2023-09-30T06:48:10;14.50;99.90
8565;DHT22;4320;51.498;6.556;2023-09-30T06:50:44;14.70;99.90
8565;DHT22;4320;51.498;6.556;2023-09-30T06:53:10;14.80;99.90
8565;DHT22;4320;51.498;6.556;2023-09-30T06:55:40;15.00;99.90
8565;DHT22;4320;51.498;6.556;2023-09-30T06:58:06;15.20;99.90
8565;DHT22;4320;51.498;6.556;2023-09-30T07:00:36;15.30;99.90
8565;DHT22;4320;51.498;6.556;2023-09-30T07:03:02;15.50;99.90
8565;DHT22;4320;51.498;6.556;2023-09-30T07:05:28;15.70;99.90
8565;DHT22;4320;51.498;6.556;2023-09-30T07:07:54;15.70;99.90
8565;DHT22;4320;51.498;6.556;2023-09-30T07:10:20;16.00;99.90
8565;DHT22;4320;51.498;6.556;2023-09-30T07:12:46;16.20;99.90
8565;DHT22;4320;51.498;6.556;2023-09-30T07:15:11;16.40;99.90
8565;DHT22;4320;51.498;6.556;2023-09-30T07:17:39;16.60;99.90
8565;DHT22;4320;51.498;6.556;2023-09-30T07:20:05;16.80;99.90
8565;DHT22;4320;51.498;6.556;2023-09-30T07:22:32;17.10;99.90
8565;DHT22;4320;51.498;6.556;2023-09-30T07:24:57;17.40;99.90
8565;DHT22;4320;51.498;6.556;2023-09-30T07:27:26;17.70;99.90
8565;DHT22;4320;51.498;6.556;2023-09-30T07:29:51;17.90;99.90
8565;DHT22;4320;51.498;6.556;2023-09-30T07:32:17;18.00;97.50
8565;DHT22;4320;51.498;6.556;2023-09-30T07:34:43;18.30;91.70
8565;DHT22;4320;51.498;6.556;2023-09-30T07:37:09;18.70;89.90
8565;DHT22;4320;51.498;6.556;2023-09-30T07:39:37;19.00;70.60
8565;DHT22;4320;51.498;6.556;2023-09-30T07:42:04;19.50;59.90
8565;DHT22;4320;51.498;6.556;2023-09-30T07:44:29;20.10;48.90
8565;DHT22;4320;51.498;6.556;2023-09-30T07:46:55;20.70;33.60
8565;DHT22;4320;51.498;6.556;2023-09-30T07:49:20;20.40;14.50
8565;DHT22;4320;51.498;6.556;2023-09-30T07:51:46;20.50;4.80
8565;DHT22;4320;51.498;6.556;2023-09-30T07:54:11;20.90;5.20
8565;DHT22;4320;51.498;6.556;2023-09-30T07:56:38;21.60;5.40
8565;DHT22;4320;51.498;6.556;2023-09-30T07:59:04;21.60;1.00
8565;DHT22;4320;51.498;6.556;2023-09-30T08:01:33;21.40;1.00
8565;DHT22;4320;51.498;6.556;2023-09-30T08:03:59;21.30;1.00
8565;DHT22;4320;51.498;6.556;2023-09-30T08:06:25;20.70;1.00
8565;DHT22;4320;51.498;6.556;2023-09-30T08:08:51;20.30;1.00
8565;DHT22;4320;51.498;6.556;2023-09-30T08:11:18;19.80;1.00
8565;DHT22;4320;51.498;6.556;2023-09-30T08:13:46;19.60;1.00
8565;DHT22;4320;51.498;6.556;2023-09-30T08:16:12;19.80;1.00
8565;DHT22;4320;51.498;6.556;2023-09-30T08:18:38;19.80;1.00
8565;DHT22;4320;51.498;6.556;2023-09-30T08:21:03;19.70;1.00
8565;DHT22;4320;51.498;6.556;2023-09-30T08:23:30;19.90;1.00
8565;DHT22;4320;51.498;6.556;2023-09-30T08:25:58;19.80;1.00
8565;DHT22;4320;51.498;6.556;2023-09-30T08:28:24;19.60;1.00
8565;DHT22;4320;51.498;6.556;2023-09-30T08:30:50;19.40;1.00
8565;DHT22;4320;51.498;6.556;2023-09-30T08:33:18;19.30;1.00
8565;DHT22;4320;51.498;6.556;2023-09-30T08:35:43;19.20;1.90
8565;DHT22;4320;51.498;6.556;2023-09-30T08:38:09;18.70;3.60
8565;DHT22;4320;51.498;6.556;2023-09-30T08:40:34;18.80;3.60
8565;DHT22;4320;51.498;6.556;2023-09-30T08:43:03;18.90;4.00
8565;DHT22;4320;51.498;6.556;2023-09-30T08:45:30;18.90;5.10
8565;DHT22;4320;51.498;6.556;2023-09-30T08:47:59;18.90;9.50
8565;DHT22;4320;51.498;6.556;2023-09-30T08:50:31;19.00;8.40
8565;DHT22;4320;51.498;6.556;2023-09-30T08:52:57;19.10;5.60
8565;DHT22;4320;51.498;6.556;2023-09-30T08:55:24;19.10;9.70
8565;DHT22;4320;51.498;6.556;2023-09-30T08:57:52;19.30;5.60
8565;DHT22;4320;51.498;6.556;2023-09-30T09:00:20;19.30;4.00
8565;DHT22;4320;51.498;6.556;2023-09-30T09:02:46;19.30;4.00
8565;DHT22;4320;51.498;6.556;2023-09-30T09:05:11;19.20;3.90
8565;DHT22;4320;51.498;6.556;2023-09-30T09:07:38;19.00;3.80
8565;DHT22;4320;51.498;6.556;2023-09-30T09:10:08;18.80;3.70
8565;DHT22;4320;51.498;6.556;2023-09-30T09:12:37;18.80;7.40
8565;DHT22;4320;51.498;6.556;2023-09-30T09:15:05;18.80;7.80
8565;DHT22;4320;51.498;6.556;2023-09-30T09:17:44;18.80;9.00
8565;DHT22;4320;51.498;6.556;2023-09-30T09:20:13;18.80;10.30
8565;DHT22;4320;51.498;6.556;2023-09-30T09:22:46;18.90;14.30
8565;DHT22;4320;51.498;6.556;2023-09-30T09:25:12;19.00;15.50
8565;DHT22;4320;51.498;6.556;2023-09-30T09:27:38;19.00;17.90
8565;DHT22;4320;51.498;6.556;2023-09-30T09:30:17;18.90;20.70
8565;DHT22;4320;51.498;6.556;2023-09-30T09:35:22;18.90;15.30
8565;DHT22;4320;51.498;6.556;2023-09-30T09:37:58;18.90;16.90
8565;DHT22;4320;51.498;6.556;2023-09-30T09:40:26;18.90;16.70
8565;DHT22;4320;51.498;6.556;2023-09-30T09:42:52;18.80;18.60
8565;DHT22;4320;51.498;6.556;2023-09-30T09:45:25;18.90;20.90
8565;DHT22;4320;51.498;6.556;2023-09-30T09:47:52;19.00;16.20
8565;DHT22;4320;51.498;6.556;2023-09-30T09:50:19;18.90;13.20
8565;DHT22;4320;51.498;6.556;2023-09-30T09:52:48;19.00;18.30
8565;DHT22;4320;51.498;6.556;2023-09-30T09:55:19;19.00;15.50
8565;DHT22;4320;51.498;6.556;2023-09-30T09:57:45;19.00;16.30
8565;DHT22;4320;51.498;6.556;2023-09-30T10:00:13;19.20;18.20
8565;DHT22;4320;51.498;6.556;2023-09-30T10:02:41;19.30;17.30
8565;DHT22;4320;51.498;6.556;2023-09-30T10:05:07;19.50;15.10
8565;DHT22;4320;51.498;6.556;2023-09-30T10:07:36;19.50;11.20
8565;DHT22;4320;51.498;6.556;2023-09-30T10:10:06;19.60;7.50
8565;DHT22;4320;51.498;6.556;2023-09-30T10:12:40;19.50;4.10
8565;DHT22;4320;51.498;6.556;2023-09-30T10:20:31;19.00;3.70
8565;DHT22;4320;51.498;6.556;2023-09-30T10:26:26;19.10;3.80
8565;DHT22;4320;51.498;6.556;2023-09-30T10:28:52;19.00;3.80
8565;DHT22;4320;51.498;6.556;2023-09-30T10:31:24;19.10;3.80
8565;DHT22;4320;51.498;6.556;2023-09-30T10:36:38;19.30;3.90
8565;DHT22;4320;51.498;6.556;2023-09-30T10:39:06;19.60;4.30
8565;DHT22;4320;51.498;6.556;2023-09-30T10:46:54;19.30;1.00
8565;DHT22;4320;51.498;6.556;2023-09-30T10:51:53;18.80;3.00
8565;DHT22;4320;51.498;6.556;2023-09-30T10:54:25;18.60;3.60
8565;DHT22;4320;51.498;6.556;2023-09-30T10:56:51;18.50;3.40
8565;DHT22;4320;51.498;6.556;2023-09-30T10:59:24;18.80;3.70
8565;DHT22;4320;51.498;6.556;2023-09-30T11:01:51;18.80;3.70
8565;DHT22;4320;51.498;6.556;2023-09-30T11:04:20;18.70;3.60
8565;DHT22;4320;51.498;6.556;2023-09-30T11:06:46;18.80;3.60
8565;DHT22;4320;51.498;6.556;2023-09-30T11:09:20;18.80;3.60
8565;DHT22;4320;51.498;6.556;2023-09-30T11:11:48;18.70;3.60
8565;DHT22;4320;51.498;6.556;2023-09-30T11:14:30;18.90;3.90
8565;DHT22;4320;51.498;6.556;2023-09-30T11:17:01;19.00;3.50
8565;DHT22;4320;51.498;6.556;2023-09-30T11:19:46;19.00;1.40
8565;DHT22;4320;51.498;6.556;2023-09-30T11:22:13;19.20;3.90
8565;DHT22;4320;51.498;6.556;2023-09-30T11:24:39;19.40;1.00
8565;DHT22;4320;51.498;6.556;2023-09-30T11:27:05;19.40;1.00
8565;DHT22;4320;51.498;6.556;2023-09-30T11:29:31;19.40;1.00
8565;DHT22;4320;51.498;6.556;2023-09-30T11:31:56;19.40;1.00
8565;DHT22;4320;51.498;6.556;2023-09-30T11:34:31;19.40;1.00
8565;DHT22;4320;51.498;6.556;2023-09-30T11:36:58;19.50;1.00
8565;DHT22;4320;51.498;6.556;2023-09-30T11:39:28;19.50;1.00
8565;DHT22;4320;51.498;6.556;2023-09-30T11:41:55;19.40;1.00
8565;DHT22;4320;51.498;6.556;2023-09-30T11:44:22;19.40;1.00
8565;DHT22;4320;51.498;6.556;2023-09-30T11:47:04;19.50;1.00
8565;DHT22;4320;51.498;6.556;2023-09-30T11:52:08;19.60;1.00
8565;DHT22;4320;51.498;6.556;2023-09-30T11:54:43;19.60;1.00
8565;DHT22;4320;51.498;6.556;2023-09-30T11:57:19;19.50;1.00
8565;DHT22;4320;51.498;6.556;2023-09-30T11:59:46;19.50;1.00
8565;DHT22;4320;51.498;6.556;2023-09-30T12:02:14;19.60;1.00
8565;DHT22;4320;51.498;6.556;2023-09-30T12:04:41;19.50;1.00
8565;DHT22;4320;51.498;6.556;2023-09-30T12:07:07;19.50;1.00
8565;DHT22;4320;51.498;6.556;2023-09-30T12:09:33;19.60;1.00
8565;DHT22;4320;51.498;6.556;2023-09-30T12:12:03;19.70;1.00
8565;DHT22;4320;51.498;6.556;2023-09-30T12:14:29;19.80;1.00
8565;DHT22;4320;51.498;6.556;2023-09-30T12:16:58;20.00;1.00
8565;DHT22;4320;51.498;6.556;2023-09-30T12:19:24;20.20;1.00
8565;DHT22;4320;51.498;6.556;2023-09-30T12:21:50;20.40;1.00
8565;DHT22;4320;51.498;6.556;2023-09-30T12:24:16;20.70;1.00
8565;DHT22;4320;51.498;6.556;2023-09-30T12:26:50;20.80;1.00
8565;DHT22;4320;51.498;6.556;2023-09-30T12:29:17;20.90;1.00
8565;DHT22;4320;51.498;6.556;2023-09-30T12:31:44;20.80;1.00
8565;DHT22;4320;51.498;6.556;2023-09-30T12:34:10;20.80;1.00
8565;DHT22;4320;51.498;6.556;2023-09-30T12:36:36;20.80;1.00
8565;DHT22;4320;51.498;6.556;2023-09-30T12:39:02;20.90;1.00
8565;DHT22;4320;51.498;6.556;2023-09-30T12:41:44;21.00;1.00
8565;DHT22;4320;51.498;6.556;2023-09-30T12:44:11;21.00;1.00
8565;DHT22;4320;51.498;6.556;2023-09-30T12:46:37;21.10;1.00
8565;DHT22;4320;51.498;6.556;2023-09-30T12:49:05;20.90;1.00
8565;DHT22;4320;51.498;6.556;2023-09-30T12:51:31;20.90;1.00
8565;DHT22;4320;51.498;6.556;2023-09-30T12:53:57;20.80;1.00
8565;DHT22;4320;51.498;6.556;2023-09-30T12:56:23;20.60;1.00
8565;DHT22;4320;51.498;6.556;2023-09-30T12:58:49;20.80;1.00
8565;DHT22;4320;51.498;6.556;2023-09-30T13:01:15;20.80;1.00
8565;DHT22;4320;51.498;6.556;2023-09-30T13:03:44;20.90;1.00
8565;DHT22;4320;51.498;6.556;2023-09-30T13:06:09;20.90;1.00
8565;DHT22;4320;51.498;6.556;2023-09-30T13:08:35;20.90;1.00
8565;DHT22;4320;51.498;6.556;2023-09-30T13:11:02;20.90;1.00
8565;DHT22;4320;51.498;6.556;2023-09-30T13:13:29;21.00;1.00
8565;DHT22;4320;51.498;6.556;2023-09-30T13:15:57;20.90;1.00
8565;DHT22;4320;51.498;6.556;2023-09-30T13:18:23;20.90;1.00
8565;DHT22;4320;51.498;6.556;2023-09-30T13:20:48;21.00;1.00
8565;DHT22;4320;51.498;6.556;2023-09-30T13:23:14;21.00;1.00
8565;DHT22;4320;51.498;6.556;2023-09-30T13:25:39;21.00;1.00
8565;DHT22;4320;51.498;6.556;2023-09-30T13:28:07;21.10;1.00
8565;DHT22;4320;51.498;6.556;2023-09-30T13:30:33;21.10;1.00
8565;DHT22;4320;51.498;6.556;2023-09-30T13:32:58;21.10;1.00
8565;DHT22;4320;51.498;6.556;2023-09-30T13:35:24;21.10;1.00
8565;DHT22;4320;51.498;6.556;2023-09-30T13:37:50;21.10;1.00
8565;DHT22;4320;51.498;6.556;2023-09-30T13:40:15;21.00;1.00
8565;DHT22;4320;51.498;6.556;2023-09-30T13:42:42;20.90;1.00
8565;DHT22;4320;51.498;6.556;2023-09-30T13:45:11;20.80;1.00
8565;DHT22;4320;51.498;6.556;2023-09-30T13:47:37;20.80;1.00
8565;DHT22;4320;51.498;6.556;2023-09-30T13:50:03;20.80;1.00
8565;DHT22;4320;51.498;6.556;2023-09-30T13:52:34;20.80;1.00
8565;DHT22;4320;51.498;6.556;2023-09-30T13:55:00;20.90;1.00
8565;DHT22;4320;51.498;6.556;2023-09-30T13:57:25;20.90;1.00
8565;DHT22;4320;51.498;6.556;2023-09-30T13:59:51;20.70;1.00
8565;DHT22;4320;51.498;6.556;2023-09-30T14:02:16;20.60;1.00
8565;DHT22;4320;51.498;6.556;2023-09-30T14:04:42;20.70;1.00
8565;DHT22;4320;51.498;6.556;2023-09-30T14:07:08;20.70;1.00
8565;DHT22;4320;51.498;6.556;2023-09-30T14:09:35;20.70;1.00
8565;DHT22;4320;51.498;6.556;2023-09-30T14:12:01;20.70;1.00
8565;DHT22;4320;51.498;6.556;2023-09-30T14:14:30;20.70;1.00
8565;DHT22;4320;51.498;6.556;2023-09-30T14:16:56;20.60;1.00
8565;DHT22;4320;51.498;6.556;2023-09-30T14:19:21;20.60;1.00
8565;DHT22;4320;51.498;6.556;2023-09-30T14:21:47;20.70;1.00
8565;DHT22;4320;51.498;6.556;2023-09-30T14:24:14;20.70;1.00
8565;DHT22;4320;51.498;6.556;2023-09-30T14:26:39;20.60;1.00
8565;DHT22;4320;51.498;6.556;2023-09-30T14:29:05;20.50;1.00
8565;DHT22;4320;51.498;6.556;2023-09-30T14:31:31;20.40;1.00
8565;DHT22;4320;51.498;6.556;2023-09-30T14:33:56;20.30;1.00
8565;DHT22;4320;51.498;6.556;2023-09-30T14:36:22;20.30;1.00
8565;DHT22;4320;51.498;6.556;2023-09-30T14:38:48;20.20;1.00
8565;DHT22;4320;51.498;6.556;2023-09-30T14:41:14;20.20;1.00
8565;DHT22;4320;51.498;6.556;2023-09-30T14:43:40;20.20;1.00
8565;DHT22;4320;51.498;6.556;2023-09-30T14:46:06;20.20;1.00
8565;DHT22;4320;51.498;6.556;2023-09-30T14:48:33;20.20;1.00
8565;DHT22;4320;51.498;6.556;2023-09-30T14:50:59;20.30;1.00
8565;DHT22;4320;51.498;6.556;2023-09-30T14:53:25;20.30;1.00
8565;DHT22;4320;51.498;6.556;2023-09-30T14:55:51;20.30;1.00
8565;DHT22;4320;51.498;6.556;2023-09-30T14:58:17;20.20;1.00
8565;DHT22;4320;51.498;6.556;2023-09-30T15:00:43;20.10;1.00
8565;DHT22;4320;51.498;6.556;2023-09-30T15:03:09;20.10;1.00
8565;DHT22;4320;51.498;6.556;2023-09-30T15:05:36;20.10;1.00
8565;DHT22;4320;51.498;6.556;2023-09-30T15:08:02;20.10;1.00
8565;DHT22;4320;51.498;6.556;2023-09-30T15:10:28;20.20;1.00
8565;DHT22;4320;51.498;6.556;2023-09-30T15:12:54;20.20;1.00
8565;DHT22;4320;51.498;6.556;2023-09-30T15:15:20;20.20;1.00
8565;DHT22;4320;51.498;6.556;2023-09-30T15:17:45;20.00;1.00
8565;DHT22;4320;51.498;6.556;2023-09-30T15:20:11;20.00;1.00
8565;DHT22;4320;51.498;6.556;2023-09-30T15:22:37;19.90;1.00
8565;DHT22;4320;51.498;6.556;2023-09-30T15:25:03;19.90;1.00
8565;DHT22;4320;51.498;6.556;2023-09-30T15:27:30;19.90;1.00
8565;DHT22;4320;51.498;6.556;2023-09-30T15:29:58;19.90;1.00
8565;DHT22;4320;51.498;6.556;2023-09-30T15:32:24;19.90;1.00
8565;DHT22;4320;51.498;6.556;2023-09-30T15:34:49;19.90;1.00
8565;DHT22;4320;51.498;6.556;2023-09-30T15:37:15;20.00;1.00
8565;DHT22;4320;51.498;6.556;2023-09-30T15:39:41;20.00;1.00
8565;DHT22;4320;51.498;6.556;2023-09-30T15:42:08;20.10;1.00
8565;DHT22;4320;51.498;6.556;2023-09-30T15:44:40;20.00;1.00
8565;DHT22;4320;51.498;6.556;2023-09-30T15:47:07;20.00;1.00
8565;DHT22;4320;51.498;6.556;2023-09-30T15:49:34;20.10;1.00
8565;DHT22;4320;51.498;6.556;2023-09-30T15:52:00;20.00;1.00
8565;DHT22;4320;51.498;6.556;2023-09-30T15:54:26;19.90;1.00
8565;DHT22;4320;51.498;6.556;2023-09-30T15:56:51;19.90;1.00
8565;DHT22;4320;51.498;6.556;2023-09-30T15:59:17;19.80;1.00
8565;DHT22;4320;51.498;6.556;2023-09-30T16:01:42;19.80;1.00
8565;DHT22;4320;51.498;6.556;2023-09-30T16:04:09;19.90;1.00
8565;DHT22;4320;51.498;6.556;2023-09-30T16:06:34;19.80;1.00
8565;DHT22;4320;51.498;6.556;2023-09-30T16:09:00;19.90;1.00
8565;DHT22;4320;51.498;6.556;2023-09-30T16:11:27;19.90;1.00
8565;DHT22;4320;51.498;6.556;2023-09-30T16:13:53;19.80;1.00
8565;DHT22;4320;51.498;6.556;2023-09-30T16:16:19;19.50;1.00
8565;DHT22;4320;51.498;6.556;2023-09-30T16:18:45;19.50;1.00
8565;DHT22;4320;51.498;6.556;2023-09-30T16:21:11;19.60;1.00
8565;DHT22;4320;51.498;6.556;2023-09-30T16:23:36;19.60;1.00
8565;DHT22;4320;51.498;6.556;2023-09-30T16:26:03;19.60;1.00
8565;DHT22;4320;51.498;6.556;2023-09-30T16:28:28;19.40;1.00
8565;DHT22;4320;51.498;6.556;2023-09-30T16:30:54;19.20;1.00
8565;DHT22;4320;51.498;6.556;2023-09-30T16:33:20;19.20;1.00